sensor_id;sensor_type;location;lat;lon;timestamp;temperature;humidity
26821;DHT22;37186;51.394;5.454;2023-06-24T00:01:17;23.60;63.70
26821;DHT22;37186;51.394;5.454;2023-06-24T00:04:18;23.60;63.60
26821;DHT22;37186;51.394;5.454;2023-06-24T00:07:19;23.60;63.80
26821;DHT22;37186;51.394;5.454;2023-06-24T00:10:22;23.50;63.60
26821;DHT22;37186;51.394;5.454;2023-06-24T00:13:23;23.50;63.70
26821;DHT22;37186;51.394;5.454;2023-06-24T00:16:23;23.50;63.80
26821;DHT22;37186;51.394;5.454;2023-06-24T00:19:27;23.50;63.80
26821;DHT22;37186;51.394;5.454;2023-06-24T00:22:28;23.50;64.00
26821;DHT22;37186;51.394;5.454;2023-06-24T00:25:29;23.50;63.90
26821;DHT22;37186;51.394;5.454;2023-06-24T00:28:30;23.40;64.00
26821;DHT22;37186;51.394;5.454;2023-06-24T00:31:30;23.40;64.00
26821;DHT22;37186;51.394;5.454;2023-06-24T00:34:31;23.40;64.00
26821;DHT22;37186;51.394;5.454;2023-06-24T00:37:31;23.40;64.10
26821;DHT22;37186;51.394;5.454;2023-06-24T00:40:32;23.30;64.10
26821;DHT22;37186;51.394;5.454;2023-06-24T00:43:34;23.30;64.00
26821;DHT22;37186;51.394;5.454;2023-06-24T00:46:35;23.30;64.10
26821;DHT22;37186;51.394;5.454;2023-06-24T00:49:36;23.20;64.10
26821;DHT22;37186;51.394;5.454;2023-06-24T00:52:36;23.20;64.00
26821;DHT22;37186;51.394;5.454;2023-06-24T00:55:38;23.20;64.00
26821;DHT22;37186;51.394;5.454;2023-06-24T00:58:38;23.10;64.10
26821;DHT22;37186;51.394;5.454;2023-06-24T01:01:40;23.10;64.10
26821;DHT22;37186;51.394;5.454;2023-06-24T01:04:41;23.10;64.10
26821;DHT22;37186;51.394;5.454;2023-06-24T01:07:42;23.10;64.10
26821;DHT22;37186;51.394;5.454;2023-06-24T01:10:42;23.00;64.20
26821;DHT22;37186;51.394;5.454;2023-06-24T01:13:43;23.00;64.20
26821;DHT22;37186;51.394;5.454;2023-06-24T01:16:57;22.90;64.20
26821;DHT22;37186;51.394;5.454;2023-06-24T01:20:04;22.90;64.20
26821;DHT22;37186;51.394;5.454;2023-06-24T01:32:52;22.80;64.60
26821;DHT22;37186;51.394;5.454;2023-06-24T01:35:56;22.80;64.60
26821;DHT22;37186;51.394;5.454;2023-06-24T01:39:02;22.80;64.50
26821;DHT22;37186;51.394;5.454;2023-06-24T01:42:14;22.70;64.60
26821;DHT22;37186;51.394;5.454;2023-06-24T01:45:19;22.70;64.50
26821;DHT22;37186;51.394;5.454;2023-06-24T01:48:28;22.70;64.50
26821;DHT22;37186;51.394;5.454;2023-06-24T01:51:32;22.60;64.50
26821;DHT22;37186;51.394;5.454;2023-06-24T01:54:36;22.60;64.50
26821;DHT22;37186;51.394;5.454;2023-06-24T01:57:40;22.60;64.60
26821;DHT22;37186;51.394;5.454;2023-06-24T02:00:42;22.60;64.60
26821;DHT22;37186;51.394;5.454;2023-06-24T02:03:42;22.60;64.60
26821;DHT22;37186;51.394;5.454;2023-06-24T02:06:44;22.50;64.70
26821;DHT22;37186;51.394;5.454;2023-06-24T02:09:46;22.50;64.70
26821;DHT22;37186;51.394;5.454;2023-06-24T02:12:50;22.50;64.80
26821;DHT22;37186;51.394;5.454;2023-06-24T02:15:51;22.40;64.70
26821;DHT22;37186;51.394;5.454;2023-06-24T02:18:54;22.40;64.60
26821;DHT22;37186;51.394;5.454;2023-06-24T02:21:57;22.30;64.60
26821;DHT22;37186;51.394;5.454;2023-06-24T02:24:59;22.30;64.70
26821;DHT22;37186;51.394;5.454;2023-06-24T02:28:00;22.30;64.70
26821;DHT22;37186;51.394;5.454;2023-06-24T02:31:01;22.30;64.60
26821;DHT22;37186;51.394;5.454;2023-06-24T02:34:02;22.20;64.90
26821;DHT22;37186;51.394;5.454;2023-06-24T02:37:03;22.20;65.00
26821;DHT22;37186;51.394;5.454;2023-06-24T02:40:06;22.20;64.70
26821;DHT22;37186;51.394;5.454;2023-06-24T02:43:07;22.10;64.80
26821;DHT22;37186;51.394;5.454;2023-06-24T02:46:09;22.10;64.90
26821;DHT22;37186;51.394;5.454;2023-06-24T02:49:13;22.00;64.90
26821;DHT22;37186;51.394;5.454;2023-06-24T02:52:15;22.00;64.90
26821;DHT22;37186;51.394;5.454;2023-06-24T02:55:16;21.90;65.10
26821;DHT22;37186;51.394;5.454;2023-06-24T02:58:16;21.90;65.10
26821;DHT22;37186;51.394;5.454;2023-06-24T03:01:17;21.90;65.20
26821;DHT22;37186;51.394;5.454;2023-06-24T03:04:20;21.80;65.00
26821;DHT22;37186;51.394;5.454;2023-06-24T03:07:21;21.80;64.90
26821;DHT22;37186;51.394;5.454;2023-06-24T03:10:23;21.80;65.00
26821;DHT22;37186;51.394;5.454;2023-06-24T03:13:25;21.70;64.90
26821;DHT22;37186;51.394;5.454;2023-06-24T03:16:26;21.70;65.00
26821;DHT22;37186;51.394;5.454;2023-06-24T03:19:26;21.60;65.30
26821;DHT22;37186;51.394;5.454;2023-06-24T03:22:27;21.60;65.00
26821;DHT22;37186;51.394;5.454;2023-06-24T03:25:28;21.60;65.50
26821;DHT22;37186;51.394;5.454;2023-06-24T03:28:30;21.60;65.10
26821;DHT22;37186;51.394;5.454;2023-06-24T03:31:30;21.50;65.20
26821;DHT22;37186;51.394;5.454;2023-06-24T03:34:31;21.40;65.20
26821;DHT22;37186;51.394;5.454;2023-06-24T03:37:31;21.40;65.20
26821;DHT22;37186;51.394;5.454;2023-06-24T03:40:32;21.40;65.60
26821;DHT22;37186;51.394;5.454;2023-06-24T03:43:33;21.40;65.50
26821;DHT22;37186;51.394;5.454;2023-06-24T03:46:33;21.30;65.70
26821;DHT22;37186;51.394;5.454;2023-06-24T03:49:34;21.30;65.50
26821;DHT22;37186;51.394;5.454;2023-06-24T03:52:34;21.30;65.50
26821;DHT22;37186;51.394;5.454;2023-06-24T03:55:35;21.20;65.50
26821;DHT22;37186;51.394;5.454;2023-06-24T03:58:35;21.20;65.50
26821;DHT22;37186;51.394;5.454;2023-06-24T04:01:36;21.10;65.60
26821;DHT22;37186;51.394;5.454;2023-06-24T04:04:36;21.10;65.40
26821;DHT22;37186;51.394;5.454;2023-06-24T04:07:37;21.10;65.60
26821;DHT22;37186;51.394;5.454;2023-06-24T04:10:38;21.10;65.50
26821;DHT22;37186;51.394;5.454;2023-06-24T04:13:39;21.00;65.50
26821;DHT22;37186;51.394;5.454;2023-06-24T04:16:39;21.00;65.60
26821;DHT22;37186;51.394;5.454;2023-06-24T04:19:40;21.00;65.50
26821;DHT22;37186;51.394;5.454;2023-06-24T04:22:42;21.00;65.70
26821;DHT22;37186;51.394;5.454;2023-06-24T04:25:43;20.90;65.50
26821;DHT22;37186;51.394;5.454;2023-06-24T04:28:43;20.90;65.50
26821;DHT22;37186;51.394;5.454;2023-06-24T04:31:44;20.90;65.60
26821;DHT22;37186;51.394;5.454;2023-06-24T04:34:44;20.90;66.50
26821;DHT22;37186;51.394;5.454;2023-06-24T04:37:45;20.80;65.70
26821;DHT22;37186;51.394;5.454;2023-06-24T04:40:45;20.90;65.70
26821;DHT22;37186;51.394;5.454;2023-06-24T04:43:46;20.80;65.70
26821;DHT22;37186;51.394;5.454;2023-06-24T04:46:46;20.80;65.70
26821;DHT22;37186;51.394;5.454;2023-06-24T04:49:47;20.80;65.70
26821;DHT22;37186;51.394;5.454;2023-06-24T04:52:54;20.80;65.90
26821;DHT22;37186;51.394;5.454;2023-06-24T04:55:55;20.80;65.90
26821;DHT22;37186;51.394;5.454;2023-06-24T04:58:55;20.70;65.70
26821;DHT22;37186;51.394;5.454;2023-06-24T05:01:56;20.70;65.90
26821;DHT22;37186;51.394;5.454;2023-06-24T05:04:56;20.70;65.80
26821;DHT22;37186;51.394;5.454;2023-06-24T05:07:57;20.70;65.90
26821;DHT22;37186;51.394;5.454;2023-06-24T05:10:57;20.70;65.90
26821;DHT22;37186;51.394;5.454;2023-06-24T05:13:59;20.70;66.50
26821;DHT22;37186;51.394;5.454;2023-06-24T05:17:00;20.70;66.00
26821;DHT22;37186;51.394;5.454;2023-06-24T05:20:01;20.70;66.00
26821;DHT22;37186;51.394;5.454;2023-06-24T05:23:01;20.70;65.90
26821;DHT22;37186;51.394;5.454;2023-06-24T05:26:02;20.70;65.90
26821;DHT22;37186;51.394;5.454;2023-06-24T05:29:02;20.70;65.90
26821;DHT22;37186;51.394;5.454;2023-06-24T05:32:04;20.70;65.80
26821;DHT22;37186;51.394;5.454;2023-06-24T05:35:05;20.70;66.00
26821;DHT22;37186;51.394;5.454;2023-06-24T05:38:06;20.70;66.40
26821;DHT22;37186;51.394;5.454;2023-06-24T05:41:06;20.70;65.90
26821;DHT22;37186;51.394;5.454;2023-06-24T05:44:08;20.70;65.90
26821;DHT22;37186;51.394;5.454;2023-06-24T05:47:10;20.70;66.00
26821;DHT22;37186;51.394;5.454;2023-06-24T05:50:10;20.70;66.00
26821;DHT22;37186;51.394;5.454;2023-06-24T05:53:11;20.60;66.00
26821;DHT22;37186;51.394;5.454;2023-06-24T05:56:11;20.70;65.70
26821;DHT22;37186;51.394;5.454;2023-06-24T05:59:12;20.70;65.60
26821;DHT22;37186;51.394;5.454;2023-06-24T06:02:13;20.80;65.90
26821;DHT22;37186;51.394;5.454;2023-06-24T06:05:13;20.80;65.70
26821;DHT22;37186;51.394;5.454;2023-06-24T06:08:14;20.80;65.50
26821;DHT22;37186;51.394;5.454;2023-06-24T06:11:14;20.80;66.00
26821;DHT22;37186;51.394;5.454;2023-06-24T06:14:15;20.80;65.70
26821;DHT22;37186;51.394;5.454;2023-06-24T06:17:15;20.80;65.50
26821;DHT22;37186;51.394;5.454;2023-06-24T06:20:16;20.80;65.40
26821;DHT22;37186;51.394;5.454;2023-06-24T06:23:17;20.80;65.50
26821;DHT22;37186;51.394;5.454;2023-06-24T06:26:17;20.80;65.40
26821;DHT22;37186;51.394;5.454;2023-06-24T06:29:18;20.80;65.40
26821;DHT22;37186;51.394;5.454;2023-06-24T06:32:18;20.80;65.30
26821;DHT22;37186;51.394;5.454;2023-06-24T06:35:19;20.80;65.50
26821;DHT22;37186;51.394;5.454;2023-06-24T06:38:19;20.90;65.50
26821;DHT22;37186;51.394;5.454;2023-06-24T06:41:20;20.90;65.40
26821;DHT22;37186;51.394;5.454;2023-06-24T06:44:26;20.90;65.50
26821;DHT22;37186;51.394;5.454;2023-06-24T06:47:27;20.90;65.50
26821;DHT22;37186;51.394;5.454;2023-06-24T06:50:27;20.90;66.00
26821;DHT22;37186;51.394;5.454;2023-06-24T06:53:28;20.90;65.40
26821;DHT22;37186;51.394;5.454;2023-06-24T06:56:29;21.00;65.40
26821;DHT22;37186;51.394;5.454;2023-06-24T06:59:32;21.00;65.40
26821;DHT22;37186;51.394;5.454;2023-06-24T07:02:33;21.00;65.40
26821;DHT22;37186;51.394;5.454;2023-06-24T07:05:34;21.00;65.40
26821;DHT22;37186;51.394;5.454;2023-06-24T07:08:34;21.10;65.40
26821;DHT22;37186;51.394;5.454;2023-06-24T07:11:35;21.10;65.30
26821;DHT22;37186;51.394;5.454;2023-06-24T07:14:36;21.10;65.40
26821;DHT22;37186;51.394;5.454;2023-06-24T07:17:36;21.10;65.30
26821;DHT22;37186;51.394;5.454;2023-06-24T07:20:37;21.20;65.40
26821;DHT22;37186;51.394;5.454;2023-06-24T07:23:37;21.20;65.40
26821;DHT22;37186;51.394;5.454;2023-06-24T07:26:38;21.20;65.40
26821;DHT22;37186;51.394;5.454;2023-06-24T07:29:39;21.20;65.40
26821;DHT22;37186;51.394;5.454;2023-06-24T07:32:39;21.30;65.40
26821;DHT22;37186;51.394;5.454;2023-06-24T07:35:40;21.30;65.30
26821;DHT22;37186;51.394;5.454;2023-06-24T07:38:40;21.30;66.00
26821;DHT22;37186;51.394;5.454;2023-06-24T07:41:41;21.30;65.30
26821;DHT22;37186;51.394;5.454;2023-06-24T07:44:42;21.30;65.20
26821;DHT22;37186;51.394;5.454;2023-06-24T07:47:43;21.40;65.20
26821;DHT22;37186;51.394;5.454;2023-06-24T07:50:44;21.40;65.20
26821;DHT22;37186;51.394;5.454;2023-06-24T07:53:44;21.40;65.20
26821;DHT22;37186;51.394;5.454;2023-06-24T07:56:45;21.40;65.00
26821;DHT22;37186;51.394;5.454;2023-06-24T07:59:46;21.50;65.20
26821;DHT22;37186;51.394;5.454;2023-06-24T08:02:47;21.50;65.20
26821;DHT22;37186;51.394;5.454;2023-06-24T08:05:47;21.50;65.00
26821;DHT22;37186;51.394;5.454;2023-06-24T08:08:50;21.50;65.00
26821;DHT22;37186;51.394;5.454;2023-06-24T08:11:50;21.60;65.00
26821;DHT22;37186;51.394;5.454;2023-06-24T08:14:51;21.60;65.00
26821;DHT22;37186;51.394;5.454;2023-06-24T08:17:52;21.60;65.00
26821;DHT22;37186;51.394;5.454;2023-06-24T08:20:53;21.60;64.90
26821;DHT22;37186;51.394;5.454;2023-06-24T08:23:54;21.60;64.90
26821;DHT22;37186;51.394;5.454;2023-06-24T08:26:54;21.60;64.90
26821;DHT22;37186;51.394;5.454;2023-06-24T08:29:55;21.70;65.00
26821;DHT22;37186;51.394;5.454;2023-06-24T08:32:55;21.70;64.90
26821;DHT22;37186;51.394;5.454;2023-06-24T08:35:56;21.70;64.90
26821;DHT22;37186;51.394;5.454;2023-06-24T08:38:56;21.80;64.90
26821;DHT22;37186;51.394;5.454;2023-06-24T08:41:57;21.80;64.80
26821;DHT22;37186;51.394;5.454;2023-06-24T08:44:58;21.80;64.80
26821;DHT22;37186;51.394;5.454;2023-06-24T08:47:58;21.90;64.80
26821;DHT22;37186;51.394;5.454;2023-06-24T08:51:02;21.90;64.70
26821;DHT22;37186;51.394;5.454;2023-06-24T08:54:03;21.90;64.70
26821;DHT22;37186;51.394;5.454;2023-06-24T08:57:05;22.00;64.70
26821;DHT22;37186;51.394;5.454;2023-06-24T09:00:07;22.00;64.70
26821;DHT22;37186;51.394;5.454;2023-06-24T09:03:10;22.00;64.60
26821;DHT22;37186;51.394;5.454;2023-06-24T09:06:11;22.00;64.50
26821;DHT22;37186;51.394;5.454;2023-06-24T09:09:21;22.00;64.50
26821;DHT22;37186;51.394;5.454;2023-06-24T09:12:24;22.10;64.60
26821;DHT22;37186;51.394;5.454;2023-06-24T09:15:25;22.10;64.60
26821;DHT22;37186;51.394;5.454;2023-06-24T09:18:31;22.20;64.60
26821;DHT22;37186;51.394;5.454;2023-06-24T09:21:32;22.20;64.50
26821;DHT22;37186;51.394;5.454;2023-06-24T09:24:33;22.20;64.50
26821;DHT22;37186;51.394;5.454;2023-06-24T09:27:34;22.30;65.40
26821;DHT22;37186;51.394;5.454;2023-06-24T09:30:35;22.30;64.50
26821;DHT22;37186;51.394;5.454;2023-06-24T09:33:35;22.30;64.40
26821;DHT22;37186;51.394;5.454;2023-06-24T09:36:42;22.40;64.30
26821;DHT22;37186;51.394;5.454;2023-06-24T09:39:42;22.40;64.40
26821;DHT22;37186;51.394;5.454;2023-06-24T09:42:53;22.50;63.90
26821;DHT22;37186;51.394;5.454;2023-06-24T09:45:53;22.50;64.20
26821;DHT22;37186;51.394;5.454;2023-06-24T09:48:54;22.50;64.00
26821;DHT22;37186;51.394;5.454;2023-06-24T09:51:57;22.60;64.10
26821;DHT22;37186;51.394;5.454;2023-06-24T09:54:59;22.60;64.10
26821;DHT22;37186;51.394;5.454;2023-06-24T09:58:03;22.70;64.20
26821;DHT22;37186;51.394;5.454;2023-06-24T10:01:05;22.70;64.00
26821;DHT22;37186;51.394;5.454;2023-06-24T10:04:13;22.80;64.10
26821;DHT22;37186;51.394;5.454;2023-06-24T10:07:14;22.80;64.00
26821;DHT22;37186;51.394;5.454;2023-06-24T10:10:15;22.90;63.90
26821;DHT22;37186;51.394;5.454;2023-06-24T10:13:15;22.90;62.60
26821;DHT22;37186;51.394;5.454;2023-06-24T10:16:16;22.90;63.00
26821;DHT22;37186;51.394;5.454;2023-06-24T10:19:20;23.00;63.40
26821;DHT22;37186;51.394;5.454;2023-06-24T10:22:23;23.00;63.30
26821;DHT22;37186;51.394;5.454;2023-06-24T10:25:36;23.10;63.00
26821;DHT22;37186;51.394;5.454;2023-06-24T10:32:09;23.10;62.80
26821;DHT22;37186;51.394;5.454;2023-06-24T10:35:30;23.30;63.20
26821;DHT22;37186;51.394;5.454;2023-06-24T10:38:31;23.30;63.10
26821;DHT22;37186;51.394;5.454;2023-06-24T10:41:31;23.40;63.10
26821;DHT22;37186;51.394;5.454;2023-06-24T10:44:45;23.40;62.70
26821;DHT22;37186;51.394;5.454;2023-06-24T10:47:50;23.50;62.80
26821;DHT22;37186;51.394;5.454;2023-06-24T10:50:57;23.60;62.50
26821;DHT22;37186;51.394;5.454;2023-06-24T10:53:58;23.60;61.90
26821;DHT22;37186;51.394;5.454;2023-06-24T10:56:58;23.60;61.90
26821;DHT22;37186;51.394;5.454;2023-06-24T11:00:00;23.70;62.40
26821;DHT22;37186;51.394;5.454;2023-06-24T11:03:14;23.70;62.50
26821;DHT22;37186;51.394;5.454;2023-06-24T11:06:15;23.80;61.40
26821;DHT22;37186;51.394;5.454;2023-06-24T11:09:16;23.90;62.10
26821;DHT22;37186;51.394;5.454;2023-06-24T11:12:16;23.90;62.30
26821;DHT22;37186;51.394;5.454;2023-06-24T11:15:18;24.00;62.20
26821;DHT22;37186;51.394;5.454;2023-06-24T11:18:19;24.10;62.30
26821;DHT22;37186;51.394;5.454;2023-06-24T11:21:20;24.10;62.10
26821;DHT22;37186;51.394;5.454;2023-06-24T11:24:28;24.20;62.20
26821;DHT22;37186;51.394;5.454;2023-06-24T11:27:30;24.30;62.30
26821;DHT22;37186;51.394;5.454;2023-06-24T11:30:34;24.30;62.30
26821;DHT22;37186;51.394;5.454;2023-06-24T11:33:35;24.40;62.10
26821;DHT22;37186;51.394;5.454;2023-06-24T11:36:36;24.50;62.10
26821;DHT22;37186;51.394;5.454;2023-06-24T11:39:36;24.50;62.00
26821;DHT22;37186;51.394;5.454;2023-06-24T11:42:38;24.60;62.30
26821;DHT22;37186;51.394;5.454;2023-06-24T11:45:39;24.60;61.60
26821;DHT22;37186;51.394;5.454;2023-06-24T11:48:40;24.70;61.50
26821;DHT22;37186;51.394;5.454;2023-06-24T11:51:51;24.70;61.00
26821;DHT22;37186;51.394;5.454;2023-06-24T11:54:53;24.80;61.00
26821;DHT22;37186;51.394;5.454;2023-06-24T12:00:58;24.90;60.60
26821;DHT22;37186;51.394;5.454;2023-06-24T12:04:14;24.90;60.50
26821;DHT22;37186;51.394;5.454;2023-06-24T12:07:14;25.00;60.90
26821;DHT22;37186;51.394;5.454;2023-06-24T12:10:15;25.00;60.60
26821;DHT22;37186;51.394;5.454;2023-06-24T12:13:15;25.10;60.00
26821;DHT22;37186;51.394;5.454;2023-06-24T12:16:16;25.10;60.20
26821;DHT22;37186;51.394;5.454;2023-06-24T12:19:17;25.20;60.70
26821;DHT22;37186;51.394;5.454;2023-06-24T12:22:17;25.30;59.60
26821;DHT22;37186;51.394;5.454;2023-06-24T12:25:18;25.30;59.90
26821;DHT22;37186;51.394;5.454;2023-06-24T12:28:19;25.40;60.50
26821;DHT22;37186;51.394;5.454;2023-06-24T12:31:19;25.50;60.80
26821;DHT22;37186;51.394;5.454;2023-06-24T12:34:20;25.60;60.10
26821;DHT22;37186;51.394;5.454;2023-06-24T12:37:22;25.60;61.60
26821;DHT22;37186;51.394;5.454;2023-06-24T12:40:22;25.70;60.90
26821;DHT22;37186;51.394;5.454;2023-06-24T12:43:23;25.80;61.00
26821;DHT22;37186;51.394;5.454;2023-06-24T12:46:24;25.80;60.70
26821;DHT22;37186;51.394;5.454;2023-06-24T12:49:24;25.90;61.90
26821;DHT22;37186;51.394;5.454;2023-06-24T12:52:25;26.00;61.00
26821;DHT22;37186;51.394;5.454;2023-06-24T12:55:25;26.10;61.20
26821;DHT22;37186;51.394;5.454;2023-06-24T12:58:26;26.10;61.10
26821;DHT22;37186;51.394;5.454;2023-06-24T13:01:27;26.20;61.30
26821;DHT22;37186;51.394;5.454;2023-06-24T13:04:27;26.20;60.10
26821;DHT22;37186;51.394;5.454;2023-06-24T13:07:28;26.30;59.50
26821;DHT22;37186;51.394;5.454;2023-06-24T13:10:28;26.40;60.10
26821;DHT22;37186;51.394;5.454;2023-06-24T13:13:29;26.40;59.80
26821;DHT22;37186;51.394;5.454;2023-06-24T13:16:29;26.40;60.00
26821;DHT22;37186;51.394;5.454;2023-06-24T13:19:30;26.50;59.80
26821;DHT22;37186;51.394;5.454;2023-06-24T13:22:32;26.60;59.90
26821;DHT22;37186;51.394;5.454;2023-06-24T13:25:33;26.60;59.40
26821;DHT22;37186;51.394;5.454;2023-06-24T13:28:35;26.70;60.10
26821;DHT22;37186;51.394;5.454;2023-06-24T13:31:35;26.70;59.50
26821;DHT22;37186;51.394;5.454;2023-06-24T13:34:36;26.80;60.20
26821;DHT22;37186;51.394;5.454;2023-06-24T13:37:36;26.80;59.30
26821;DHT22;37186;51.394;5.454;2023-06-24T13:40:38;26.90;59.90
26821;DHT22;37186;51.394;5.454;2023-06-24T13:43:39;27.00;60.00
26821;DHT22;37186;51.394;5.454;2023-06-24T13:46:40;27.10;60.00
26821;DHT22;37186;51.394;5.454;2023-06-24T13:49:40;27.20;60.00
26821;DHT22;37186;51.394;5.454;2023-06-24T13:52:41;27.20;60.10
26821;DHT22;37186;51.394;5.454;2023-06-24T13:55:41;27.30;59.40
26821;DHT22;37186;51.394;5.454;2023-06-24T13:58:42;27.40;59.10
26821;DHT22;37186;51.394;5.454;2023-06-24T14:01:43;27.40;59.60
26821;DHT22;37186;51.394;5.454;2023-06-24T14:04:44;27.50;59.40
26821;DHT22;37186;51.394;5.454;2023-06-24T14:07:45;27.60;59.60
26821;DHT22;37186;51.394;5.454;2023-06-24T14:10:45;27.60;59.60
26821;DHT22;37186;51.394;5.454;2023-06-24T14:13:46;27.70;58.80
26821;DHT22;37186;51.394;5.454;2023-06-24T14:16:47;27.80;59.50
26821;DHT22;37186;51.394;5.454;2023-06-24T14:19:47;27.80;58.40
26821;DHT22;37186;51.394;5.454;2023-06-24T14:22:48;27.90;59.40
26821;DHT22;37186;51.394;5.454;2023-06-24T14:25:49;28.00;59.70
26821;DHT22;37186;51.394;5.454;2023-06-24T14:28:49;28.00;58.70
26821;DHT22;37186;51.394;5.454;2023-06-24T14:31:50;28.10;58.20
26821;DHT22;37186;51.394;5.454;2023-06-24T14:34:50;28.20;58.40
26821;DHT22;37186;51.394;5.454;2023-06-24T14:37:51;28.30;59.40
26821;DHT22;37186;51.394;5.454;2023-06-24T14:40:51;28.40;58.90
26821;DHT22;37186;51.394;5.454;2023-06-24T14:43:52;28.40;59.30
26821;DHT22;37186;51.394;5.454;2023-06-24T14:46:53;28.60;59.10
26821;DHT22;37186;51.394;5.454;2023-06-24T14:49:53;28.60;58.00
26821;DHT22;37186;51.394;5.454;2023-06-24T14:52:54;28.70;59.20
26821;DHT22;37186;51.394;5.454;2023-06-24T14:55:54;28.90;59.10
26821;DHT22;37186;51.394;5.454;2023-06-24T14:58:55;29.00;59.10
26821;DHT22;37186;51.394;5.454;2023-06-24T15:01:55;29.10;58.80
26821;DHT22;37186;51.394;5.454;2023-06-24T15:04:56;29.20;59.20
26821;DHT22;37186;51.394;5.454;2023-06-24T15:07:56;29.40;58.10
26821;DHT22;37186;51.394;5.454;2023-06-24T15:10:57;29.50;58.00
26821;DHT22;37186;51.394;5.454;2023-06-24T15:13:57;29.60;58.60
26821;DHT22;37186;51.394;5.454;2023-06-24T15:16:58;29.70;58.20
26821;DHT22;37186;51.394;5.454;2023-06-24T15:19:59;29.90;58.10
26821;DHT22;37186;51.394;5.454;2023-06-24T15:22:59;30.10;58.60
26821;DHT22;37186;51.394;5.454;2023-06-24T15:26:00;30.30;58.60
26821;DHT22;37186;51.394;5.454;2023-06-24T15:29:00;30.50;59.50
26821;DHT22;37186;51.394;5.454;2023-06-24T15:32:01;30.70;59.30
26821;DHT22;37186;51.394;5.454;2023-06-24T15:35:03;30.90;58.90
26821;DHT22;37186;51.394;5.454;2023-06-24T15:38:03;31.10;59.60
26821;DHT22;37186;51.394;5.454;2023-06-24T15:41:04;31.20;58.40
26821;DHT22;37186;51.394;5.454;2023-06-24T15:44:05;31.40;59.20
26821;DHT22;37186;51.394;5.454;2023-06-24T15:47:05;31.60;59.10
26821;DHT22;37186;51.394;5.454;2023-06-24T15:50:06;31.70;56.10
26821;DHT22;37186;51.394;5.454;2023-06-24T15:53:07;31.80;58.60
26821;DHT22;37186;51.394;5.454;2023-06-24T15:56:08;31.90;58.60
26821;DHT22;37186;51.394;5.454;2023-06-24T15:59:08;32.00;55.50
26821;DHT22;37186;51.394;5.454;2023-06-24T16:02:09;32.00;58.00
26821;DHT22;37186;51.394;5.454;2023-06-24T16:05:10;32.10;58.40
26821;DHT22;37186;51.394;5.454;2023-06-24T16:08:11;32.20;58.00
26821;DHT22;37186;51.394;5.454;2023-06-24T16:11:11;32.30;57.90
26821;DHT22;37186;51.394;5.454;2023-06-24T16:14:12;32.30;57.60
26821;DHT22;37186;51.394;5.454;2023-06-24T16:17:12;32.30;57.30
26821;DHT22;37186;51.394;5.454;2023-06-24T16:20:13;32.30;56.70
26821;DHT22;37186;51.394;5.454;2023-06-24T16:23:16;32.20;54.10
26821;DHT22;37186;51.394;5.454;2023-06-24T16:26:17;32.20;56.00
26821;DHT22;37186;51.394;5.454;2023-06-24T16:29:17;32.10;55.60
26821;DHT22;37186;51.394;5.454;2023-06-24T16:32:18;32.00;55.70
26821;DHT22;37186;51.394;5.454;2023-06-24T16:35:18;32.00;55.30
26821;DHT22;37186;51.394;5.454;2023-06-24T16:38:19;31.90;55.50
26821;DHT22;37186;51.394;5.454;2023-06-24T16:41:20;31.80;55.00
26821;DHT22;37186;51.394;5.454;2023-06-24T16:44:20;31.80;55.20
26821;DHT22;37186;51.394;5.454;2023-06-24T16:47:21;31.70;55.50
26821;DHT22;37186;51.394;5.454;2023-06-24T16:50:22;31.70;54.10
26821;DHT22;37186;51.394;5.454;2023-06-24T16:53:23;31.60;54.40
26821;DHT22;37186;51.394;5.454;2023-06-24T16:56:24;31.60;55.10
26821;DHT22;37186;51.394;5.454;2023-06-24T16:59:24;31.60;54.70
26821;DHT22;37186;51.394;5.454;2023-06-24T17:02:25;31.60;54.90
26821;DHT22;37186;51.394;5.454;2023-06-24T17:05:25;31.70;55.70
26821;DHT22;37186;51.394;5.454;2023-06-24T17:08:26;31.70;54.40
26821;DHT22;37186;51.394;5.454;2023-06-24T17:11:26;31.60;54.40
26821;DHT22;37186;51.394;5.454;2023-06-24T17:14:27;31.60;54.30
26821;DHT22;37186;51.394;5.454;2023-06-24T17:17:27;31.50;54.50
26821;DHT22;37186;51.394;5.454;2023-06-24T17:20:28;31.50;54.40
26821;DHT22;37186;51.394;5.454;2023-06-24T17:23:28;31.60;55.00
26821;DHT22;37186;51.394;5.454;2023-06-24T17:26:29;31.60;55.70
26821;DHT22;37186;51.394;5.454;2023-06-24T17:29:30;31.80;55.30
26821;DHT22;37186;51.394;5.454;2023-06-24T17:32:30;32.00;55.20
26821;DHT22;37186;51.394;5.454;2023-06-24T17:35:31;32.10;55.80
26821;DHT22;37186;51.394;5.454;2023-06-24T17:38:31;32.30;55.10
26821;DHT22;37186;51.394;5.454;2023-06-24T17:41:32;32.60;57.20
26821;DHT22;37186;51.394;5.454;2023-06-24T17:44:32;32.80;54.90
26821;DHT22;37186;51.394;5.454;2023-06-24T17:47:33;32.90;56.30
26821;DHT22;37186;51.394;5.454;2023-06-24T17:50:33;33.00;56.10
26821;DHT22;37186;51.394;5.454;2023-06-24T17:53:34;33.10;56.40
26821;DHT22;37186;51.394;5.454;2023-06-24T17:56:34;33.20;54.80
26821;DHT22;37186;51.394;5.454;2023-06-24T17:59:35;33.40;56.40
26821;DHT22;37186;51.394;5.454;2023-06-24T18:02:36;33.40;56.00
26821;DHT22;37186;51.394;5.454;2023-06-24T18:05:37;33.40;55.60
26821;DHT22;37186;51.394;5.454;2023-06-24T18:08:37;33.50;55.50
26821;DHT22;37186;51.394;5.454;2023-06-24T18:11:38;33.50;54.70
26821;DHT22;37186;51.394;5.454;2023-06-24T18:14:39;33.40;53.70
26821;DHT22;37186;51.394;5.454;2023-06-24T18:17:39;33.40;54.20
26821;DHT22;37186;51.394;5.454;2023-06-24T18:20:40;33.40;54.40
26821;DHT22;37186;51.394;5.454;2023-06-24T18:23:40;33.30;54.50
26821;DHT22;37186;51.394;5.454;2023-06-24T18:26:41;33.20;54.10
26821;DHT22;37186;51.394;5.454;2023-06-24T18:29:42;33.10;53.90
26821;DHT22;37186;51.394;5.454;2023-06-24T18:32:42;33.00;53.80
26821;DHT22;37186;51.394;5.454;2023-06-24T18:35:43;32.90;53.70
26821;DHT22;37186;51.394;5.454;2023-06-24T18:38:43;32.80;53.50
26821;DHT22;37186;51.394;5.454;2023-06-24T18:41:44;32.70;53.40
26821;DHT22;37186;51.394;5.454;2023-06-24T18:44:45;32.60;53.30
26821;DHT22;37186;51.394;5.454;2023-06-24T18:47:46;32.50;53.20
26821;DHT22;37186;51.394;5.454;2023-06-24T18:50:47;32.40;53.10
26821;DHT22;37186;51.394;5.454;2023-06-24T18:53:48;32.30;53.70
26821;DHT22;37186;51.394;5.454;2023-06-24T18:56:48;32.10;53.20
26821;DHT22;37186;51.394;5.454;2023-06-24T18:59:49;32.00;53.10
26821;DHT22;37186;51.394;5.454;2023-06-24T19:02:50;31.90;53.20
26821;DHT22;37186;51.394;5.454;2023-06-24T19:05:50;31.80;53.10
26821;DHT22;37186;51.394;5.454;2023-06-24T19:08:51;31.70;53.10
26821;DHT22;37186;51.394;5.454;2023-06-24T19:11:52;31.60;53.10
26821;DHT22;37186;51.394;5.454;2023-06-24T19:14:53;31.50;53.10
26821;DHT22;37186;51.394;5.454;2023-06-24T19:17:53;31.30;53.10
26821;DHT22;37186;51.394;5.454;2023-06-24T19:20:54;31.20;53.00